{
  "fields": [{"id":"_id","type":"int"},{"id":"Timestamp","type":"text"},{"id":"Taupunkt","type":"text"},{"id":"Temperatur","type":"text"},{"id":"Temperatur2","type":"text"},{"id":"Wind Chill","type":"text"}],
  "records": [
    [1,"2023-07-31 23:55:54","15.039310344827582","19.67241379310344","19.67241379310344","19.67241379310344"],
    [2,"2023-08-01 23:55:54","12.987500000000002","19.298529411764704","19.298529411764704","19.298529411764704"],
    [3,"2023-08-02 23:55:54","14.958156028368794","19.483687943262424","19.483687943262424","19.483687943262424"],
    [4,"2023-08-03 23:55:54","13.522535211267606","17.969014084507037","17.969014084507037","17.969014084507037"],
    [5,"2023-08-04 23:55:54","14.238732394366194","16.259154929577466","16.259154929577466","16.259154929577466"],
    [6,"2023-08-05 23:55:54","13.19071428571429","17.880714285714287","17.880714285714287","17.835714285714282"],
    [7,"2023-08-06 23:55:54","10.321527777777774","14.65833333333334","14.65833333333334","14.476388888888895"],
    [8,"2023-08-07 23:55:54","9.809790209790211","17.241258741258743","17.241258741258743","17.241258741258743"],
    [9,"2023-08-08 23:55:54","11.45390070921986","19.77943262411349","19.77943262411349","19.77943262411349"],
    [10,"2023-08-09 23:55:54","14.502777777777775","19.28958333333334","19.28958333333334","19.28958333333334"],
    [11,"2023-08-10 23:55:54","12.453846153846154","21.28111888111888","21.28111888111888","21.28111888111888"],
    [12,"2023-08-11 23:55:54","17.186524822695038","25.173758865248217","25.173758865248217","25.173758865248217"],
    [13,"2023-08-12 23:55:54","19.802112676056336","22.576056338028177","22.576056338028177","22.576056338028177"],
    [14,"2023-08-13 23:55:54","18.944285714285712","23.485714285714295","23.485714285714295","23.485714285714295"],
    [15,"2023-08-14 23:55:54","19.82887323943661","25.03169014084507","25.03169014084507","25.03169014084507"],
    [16,"2023-08-15 23:55:54","18.41538461538461","23.636363636363637","23.636363636363637","23.636363636363637"],
    [17,"2023-08-16 23:55:54","18.478321678321677","23.25314685314684","23.25314685314684","23.25314685314684"],
    [18,"2023-08-17 23:55:54","19.285106382978732","23.728368794326254","23.728368794326254","23.728368794326254"],
    [19,"2023-08-18 23:55:54","19.13034482758621","26.48413793103449","26.48413793103449","26.48413793103449"],
    [20,"2023-08-19 23:55:54","20.027659574468085","25.978723404255323","25.978723404255323","25.978723404255323"],
    [21,"2023-08-20 23:55:54","19.87112676056338","27.173943661971833","27.173943661971833","27.173239436619717"],
    [22,"2023-08-21 23:55:54","19.33819444444444","27.36249999999999","27.36249999999999","27.36249999999999"],
    [23,"2023-08-22 23:55:54","17.50845070422534","26.335915492957756","26.335915492957756","26.335915492957756"],
    [24,"2023-08-23 23:55:54","16.26906474820144","24.98129496402878","24.98129496402878","24.98129496402878"],
    [25,"2023-08-24 23:55:54","19.337062937062942","23.665734265734272","23.665734265734272","23.665734265734272"],
    [26,"2023-08-25 23:55:54","17.96853146853147","22.586713286713287","22.586713286713287","22.586713286713287"],
    [27,"2023-08-26 23:55:54","14.736111111111105","18.671527777777786","18.671527777777786","18.671527777777786"],
    [28,"2023-08-27 23:55:54","13.532394366197188","17.023239436619715","17.023239436619715","17.023239436619715"],
    [29,"2023-08-28 23:55:54","12.028873239436614","15.834507042253522","15.834507042253522","15.834507042253522"],
    [30,"2023-08-29 23:55:54","12.69214285714286","16.489285714285725","16.489285714285725","16.489285714285725"],
    [31,"2023-08-30 23:55:54","12.396551724137927","17.197241379310352","17.197241379310352","17.197241379310352"],
    [32,"2023-08-31 23:55:54","13.217361111111112","17.75555555555555","17.75555555555555","17.75555555555555"],
    [33,"2023-09-01 23:55:54","15.434931506849312","19.693835616438353","19.693835616438353","19.693835616438353"],
    [34,"2023-09-02 23:55:54","16.278321678321678","21.874825174825183","21.874825174825183","21.874825174825183"],
    [35,"2023-09-03 23:55:54","15.337499999999999","20.896527777777788","20.896527777777788","20.896527777777788"],
    [36,"2023-09-04 23:55:54","11.550000000000002","23.11014492753624","23.11014492753624","23.11014492753624"],
    [37,"2023-09-05 23:55:54","12.897916666666665","21.97291666666665","21.97291666666665","21.97291666666665"],
    [38,"2023-09-06 23:55:54","13.432624113475182","21.848226950354615","21.848226950354615","21.848226950354615"],
    [39,"2023-09-07 23:55:54","15.304225352112676","22.813380281690147","22.813380281690147","22.813380281690147"],
    [40,"2023-09-08 23:55:54","17.251408450704226","23.446478873239435","23.446478873239435","23.446478873239435"],
    [41,"2023-09-09 23:55:54","17.17132867132867","23.839160839160847","23.839160839160847","23.839160839160847"],
    [42,"2023-09-10 23:55:54","15.094444444444443","23.41527777777778","23.41527777777778","23.41527777777778"],
    [43,"2023-09-11 23:55:54","16.396376811594212","24.289855072463777","24.289855072463777","24.289855072463777"],
    [44,"2023-09-12 23:55:54","15.533333333333323","24.30138888888889","24.30138888888889","24.30138888888889"],
    [45,"2023-09-13 23:55:54","13.713888888888892","19.484722222222228","19.484722222222228","19.482638888888893"],
    [46,"2023-09-14 23:55:54","11.127777777777778","17.282638888888883","17.282638888888883","17.282638888888883"],
    [47,"2023-09-15 23:55:54","14.418055555555554","20.69583333333333","20.69583333333333","20.69583333333333"],
    [48,"2023-09-16 23:55:54","17.034027777777784","22.261111111111113","22.261111111111113","22.261111111111113"],
    [49,"2023-09-17 23:55:54","16.639160839160834","23.52097902097903","23.52097902097903","23.52097902097903"],
    [50,"2023-09-18 23:55:54","14.89027777777778","19.051388888888894","19.051388888888894","19.051388888888894"],
    [51,"2023-09-19 23:55:54","11.622916666666672","18.6076388888889","18.6076388888889","18.6076388888889"],
    [52,"2023-09-20 23:55:54","12.568055555555558","20.066666666666674","20.066666666666674","20.066666666666674"],
    [53,"2023-09-21 23:55:54","14.046153846153844","18.031468531468533","18.031468531468533","18.020279720279724"],
    [54,"2023-09-22 23:55:54","9.989436619718312","15.306338028169018","15.306338028169018","15.291549295774653"],
    [55,"2023-09-23 23:55:54","8.8556338028169","13.608450704225353","13.608450704225353","13.511971830985916"],
    [56,"2023-09-24 23:55:54","7.356115107913668","14","14","13.848920863309353"],
    [57,"2023-09-25 23:55:54","9.664028776978418","15.464028776978417","15.464028776978417","15.400000000000002"],
    [58,"2023-09-26 23:55:54","12.211347517730497","16.800709219858163","16.800709219858163","16.796453900709228"],
    [59,"2023-09-27 23:55:54","14.111643835616437","18.559589041095883","18.559589041095883","18.559589041095883"],
    [60,"2023-09-28 23:55:54","13.85454545454545","20.285314685314674","20.285314685314674","20.285314685314674"],
    [61,"2023-09-29 23:55:54","14.15833333333333","19.963194444444444","19.963194444444444","19.963194444444444"],
    [62,"2023-09-30 23:55:54","10.902097902097903","16.076923076923073","16.076923076923073","16.053146853146842"],
    [63,"2023-10-01 23:55:54","12.48925619834711","18.137190082644633","18.137190082644633","18.137190082644633"],
    [64,"2023-10-02 23:55:54","13.61931034482759","20.286896551724148","20.286896551724148","20.286896551724148"],
    [65,"2023-10-03 23:55:54","11.772727272727268","15.832575757575755","15.832575757575755","15.793181818181823"],
    [66,"2023-10-04 23:55:54","8.488194444444444","13.152083333333334","13.152083333333334","13.027083333333334"],
    [67,"2023-10-05 23:55:54","8.341379310344825","12.342068965517248","12.342068965517248","12.165517241379312"],
    [68,"2023-10-06 23:55:54","8.464583333333339","13.035416666666665","13.035416666666665","12.885416666666664"],
    [69,"2023-10-07 23:55:54","7.837500000000002","16.447916666666657","16.447916666666657","16.443055555555546"],
    [70,"2023-10-08 23:55:54","10.617361111111112","17.452083333333338","17.452083333333338","17.452083333333338"],
    [71,"2023-10-09 23:55:54","11.752083333333331","18.032638888888886","18.032638888888886","18.032638888888886"],
    [72,"2023-10-10 23:55:54","11.238620689655173","17.253103448275862","17.253103448275862","17.251034482758623"],
    [73,"2023-10-11 23:55:54","11.782068965517254","20.9096551724138","20.9096551724138","20.9096551724138"],
    [74,"2023-10-12 23:55:54","10.938888888888885","20.54583333333334","20.54583333333334","20.54583333333334"],
    [75,"2023-10-13 23:55:54","9.97887323943662","23.116901408450705","23.116901408450705","23.10774647887324"],
    [76,"2023-10-14 23:55:54","7.956097560975608","12.974390243902437","12.974390243902437","12.814634146341465"],
    [77,"2023-10-15 23:55:54","1.8736111111111111","7.556944444444442","7.556944444444442","6.820138888888888"],
    [78,"2023-10-16 23:55:54","2.1776223776223795","8.12097902097902","8.12097902097902","7.266433566433566"],
    [79,"2023-10-17 23:55:54","4.246153846153847","8.353846153846153","8.353846153846153","7.775524475524477"],
    [80,"2023-10-18 23:55:54","9.06153846153846","10.854545454545454","10.854545454545454","10.704195804195802"],
    [81,"2023-10-19 23:55:54","14.212676056338031","15.129577464788737","15.129577464788737","15.128169014084513"],
    [82,"2023-10-20 23:55:54","11.859027777777778","15.805555555555555","15.805555555555555","15.789583333333326"],
    [83,"2023-10-21 23:55:54","7.789436619718309","14.181690140845067","14.181690140845067","14.132394366197179"],
    [84,"2023-10-22 23:55:54","7.188194444444441","11.40972222222222","11.40972222222222","11.14444444444445"],
    [85,"2023-10-23 23:55:54","10.361971830985924","11.701408450704232","11.701408450704232","11.64366197183099"],
    [86,"2023-10-24 23:55:54","10.371724137931036","11.164827586206892","11.164827586206892","10.992413793103443"],
    [87,"2023-10-25 23:55:54","10.414583333333335","12.65972222222222","12.65972222222222","12.51597222222222"],
    [88,"2023-10-26 23:55:54","10.80985915492957","12.521126760563385","12.521126760563385","12.378873239436619"],
    [89,"2023-10-27 23:55:54","9.002777777777785","12.472222222222218","12.472222222222218","12.227083333333333"],
    [90,"2023-10-28 23:55:54","10.025874125874132","12.368531468531474","12.368531468531474","12.346853146853148"],
    [91,"2023-10-29 22:55:54","12.01180555555556","13.103472222222218","13.103472222222218","13.083333333333329"],
    [92,"2023-10-30 22:55:54","11.079020979020983","12.899999999999999","12.899999999999999","12.733566433566438"],
    [93,"2023-10-31 22:55:54","9.377083333333337","12.15972222222222","12.15972222222222","12.120833333333335"],
    [94,"2023-11-01 22:55:54","7.736805555555558","12.964583333333334","12.964583333333334","12.871527777777779"],
    [95,"2023-11-02 22:55:54","5.852083333333332","10.15208333333333","10.15208333333333","9.785416666666656"],
    [96,"2023-11-03 22:55:54","4.589583333333334","8.643055555555556","8.643055555555556","8.125000000000004"],
    [97,"2023-11-04 22:55:54","6.706474820143889","12.023021582733815","12.023021582733815","11.49352517985612"],
    [98,"2023-11-05 22:55:54","7.463432835820901","11.198507462686571","11.198507462686571","10.579850746268654"],
    [99,"2023-11-06 22:55:54","6.913194444444443","10.45416666666667","10.45416666666667","10.034027777777782"],
    [100,"2023-11-07 22:55:54","5.688888888888885","8.613888888888887","8.613888888888887","8.01041666666667"],
    [101,"2023-11-08 22:55:54","4.524305555555556","8.246527777777782","8.246527777777782","7.726388888888888"],
    [102,"2023-11-09 22:55:54","6.66","9.662758620689656","9.662758620689656","9.121379310344826"],
    [103,"2023-11-10 22:55:54","5.036805555555559","8.694444444444446","8.694444444444446","7.597916666666669"],
    [104,"2023-11-11 22:55:54","3.663380281690143","7.1704225352112685","7.1704225352112685","6.330985915492957"],
    [105,"2023-11-12 22:55:54","7.225694444444445","8.762499999999998","8.762499999999998","8.274305555555557"],
    [106,"2023-11-13 22:55:54","10.481944444444444","13.623611111111115","13.623611111111115","13.425694444444447"],
    [107,"2023-11-14 22:55:54","8.131944444444445","11.540277777777781","11.540277777777781","11.017361111111107"],
    [108,"2023-11-15 22:55:54","6.704827586206894","10.080000000000004","10.080000000000004","9.588965517241375"],
    [109,"2023-11-16 22:55:54","6.570000000000004","7.5728571428571465","7.5728571428571465","6.929285714285716"],
    [110,"2023-11-17 22:55:54","5.591608391608388","6.513986013986011","6.513986013986011","5.804195804195801"],
    [111,"2023-11-18 22:55:54","8.094444444444441","10.019444444444444","10.019444444444444","9.556944444444447"],
    [112,"2023-11-19 22:55:54","8.23776223776224","13.386013986013984","13.386013986013984","13.114685314685318"],
    [113,"2023-11-20 22:55:54","7.860416666666666","9.820138888888883","9.820138888888883","9.429861111111121"],
    [114,"2023-11-21 22:55:54","5.044444444444442","7.082638888888887","7.082638888888887","6.203472222222221"],
    [115,"2023-11-22 22:55:54","-1.207638888888888","1.9180555555555543","1.9180555555555543","0.43472222222222257"],
    [116,"2023-11-23 22:55:54","4.260416666666666","7.0840277777777825","7.0840277777777825","5.972222222222222"],
    [117,"2023-11-24 22:55:54","1.4590277777777776","4.81875","4.81875","3.526388888888893"],
    [118,"2023-11-25 22:55:54","2.1062937062937057","4.286713286713289","4.286713286713289","2.8412587412587405"],
    [119,"2023-11-26 22:55:54","2.2413793103448265","4.376551724137934","4.376551724137934","3.353793103448276"],
    [120,"2023-11-27 22:55:54","2.285915492957747","4.438732394366196","4.438732394366196","2.8922535211267597"],
    [121,"2023-11-28 22:55:54","-2.002816901408451","2.1676056338028165","2.1676056338028165","0.7521126760563381"],
    [122,"2023-11-29 22:55:54","-0.5020689655172412","2.0144827586206895","2.0144827586206895","0.6096551724137922"],
    [123,"2023-11-30 22:55:54","0.4999999999999998","1.8999999999999975","1.8999999999999975","0.5562500000000007"],
    [124,"2023-12-01 22:55:54","-0.9321678321678318","0.44545454545454544","0.44545454545454544","-1.616083916083916"],
    [125,"2023-12-02 22:55:54","-5.436428571428573","-1.6735714285714285","-1.6735714285714285","-3.514285714285713"],
    [126,"2023-12-03 22:55:54","-4.404225352112674","-1.6408450704225352","-1.6408450704225352","-3.461971830985914"],
    [127,"2023-12-04 22:55:54","0.5208333333333331","2.400694444444444","2.400694444444444","1.0520833333333328"],
    [128,"2023-12-05 22:55:54","3.4152777777777765","5.555555555555558","5.555555555555558","4.280555555555555"],
    [129,"2023-12-06 22:55:54","1.5489510489510496","3.514685314685314","3.514685314685314","2.3825174825174815"],
    [130,"2023-12-07 22:55:54","1.0853146853146853","1.690909090909091","1.690909090909091","0.32307692307692293"],
    [131,"2023-12-08 22:55:54","6.1055172413793075","6.933793103448277","6.933793103448277","6.268275862068963"],
    [132,"2023-12-09 22:55:54","6.02","9.380689655172405","9.380689655172405","8.58344827586207"],
    [133,"2023-12-10 22:55:54","6.325694444444447","10.574305555555547","10.574305555555547","10.048611111111107"],
    [134,"2023-12-11 22:55:54","6.204195804195801","10.413986013986014","10.413986013986014","9.893006993006997"],
    [135,"2023-12-12 22:55:54","8.797222222222224","10.027777777777784","10.027777777777784","9.729166666666671"],
    [136,"2023-12-13 22:55:54","7.112499999999999","8.170138888888895","8.170138888888895","7.681250000000009"],
    [137,"2023-12-14 22:55:54","5.001398601398605","7.127272727272729","7.127272727272729","6.490909090909094"],
    [138,"2023-12-15 22:55:54","4.706250000000001","6.87986111111111","6.87986111111111","6.206944444444442"],
    [139,"2023-12-16 22:55:54","1.7062499999999998","3.760416666666665","3.760416666666665","2.6743055555555575"],
    [140,"2023-12-17 22:55:54","0.36503496503496513","0.681118881118881","0.681118881118881","-0.8118881118881117"],
    [141,"2023-12-18 22:55:54","1.0690140845070417","3.033098591549297","3.033098591549297","1.845774647887325"],
    [142,"2023-12-19 22:55:54","2.8062937062937072","5.41888111888112","5.41888111888112","4.261538461538463"],
    [143,"2023-12-20 22:55:54","3.8140845070422547","6.4901408450704245","6.4901408450704245","5.032394366197181"],
    [144,"2023-12-21 22:55:54","6.225","9.342857142857143","9.342857142857143","7.741428571428573"],
    [145,"2023-12-22 22:55:54","6.819444444444442","9.055555555555559","9.055555555555559","7.16736111111111"],
    [146,"2023-12-23 22:55:54","5.68698630136986","9.11986301369863","9.11986301369863","7.6958904109589055"],
    [147,"2023-12-24 22:55:54","5.8622377622377595","10.189510489510484","10.189510489510484","9.213286713286712"],
    [148,"2023-12-25 22:55:54","5.161267605633799","9.53661971830986","9.53661971830986","8.637323943661976"],
    [149,"2023-12-26 22:55:54","5.741666666666666","8.672222222222219","8.672222222222219","8.203472222222224"],
    [150,"2023-12-27 22:55:54","2.8117241379310345","7.633793103448276","7.633793103448276","7.048275862068967"],
    [151,"2023-12-28 22:55:54","6.7648275862068985","9.678620689655167","9.678620689655167","9.212413793103446"],
    [152,"2023-12-29 22:55:54","6.069930069930075","10.08671328671328","10.08671328671328","9.558741258741263"],
    [153,"2023-12-30 22:55:54","4.965034965034968","7.78811188811189","7.78811188811189","7.239160839160838"],
    [154,"2023-12-31 22:55:54","3.8874125874125864","7.675524475524473","7.675524475524473","6.545454545454544"],
    [155,"2024-01-01 22:55:54","3.9846153846153842","8.341958041958037","8.341958041958037","7.425174825174823"],
    [156,"2024-01-02 22:55:54","7.438405797101443","10.047826086956524","10.047826086956524","9.141304347826088"],
    [157,"2024-01-03 22:55:54","6.046206896551723","9.811034482758627","9.811034482758627","8.66344827586207"],
    [158,"2024-01-04 22:55:54","4.330069930069932","7.719580419580417","7.719580419580417","7.011188811188812"],
    [159,"2024-01-05 22:55:54","3.861805555555555","7.106249999999999","7.106249999999999","6.463194444444444"],
    [160,"2024-01-06 22:55:54","3.693055555555557","4.924305555555553","4.924305555555553","3.967361111111111"],
    [161,"2024-01-07 22:55:54","-1.8755319148936174","1.522340425531913","1.522340425531913","-0.9680851063829784"],
    [162,"2024-01-08 22:55:54","-8.667586206896551","-3.440689655172415","-3.440689655172415","-7.740689655172415"],
    [163,"2024-01-09 22:55:54","-9.682517482517477","-2.7181818181818183","-2.7181818181818183","-5.283216783216784"],
    [164,"2024-01-10 22:55:54","-7.220833333333333","-2.1923611111111097","-2.1923611111111097","-4.538194444444446"],
    [165,"2024-01-11 22:55:54","-6.034722222222226","-1.976388888888889","-1.976388888888889","-4.113194444444443"],
    [166,"2024-01-12 22:55:54","-3.9028169014084493","-1.302112676056337","-1.302112676056337","-3.221126760563377"],
    [167,"2024-01-13 22:55:54","-4.842361111111109","-2.7534722222222205","-2.7534722222222205","-4.734027777777776"],
    [168,"2024-01-14 22:55:54","-4.970714285714286","-2.2214285714285715","-2.2214285714285715","-4.402142857142858"],
    [169,"2024-01-15 22:55:54","-3.483916083916085","-0.2153846153846152","-0.2153846153846152","-2.022377622377623"],
    [170,"2024-01-16 22:55:54","-4.994964028776977","-1.2345323741007195","-1.2345323741007195","-2.987050359712231"],
    [171,"2024-01-17 22:55:54","3.377464788732394","4.8774647887323965","4.8774647887323965","3.4021126760563374"],
    [172,"2024-01-18 22:55:54","-2.1851851851851865","-0.9614814814814816","-0.9614814814814816","-2.693333333333334"],
    [173,"2024-01-19 22:55:54","-5.347586206896552","-3.511034482758621","-3.511034482758621","-5.57103448275862"],
    [174,"2024-01-20 22:55:54","-4.745774647887326","-3.4436619718309855","-3.4436619718309855","-5.492253521126761"],
    [175,"2024-01-21 22:55:54","-0.969444444444445","5.750694444444445","5.750694444444445","4.690972222222223"],
    [176,"2024-01-22 22:55:54","5.440972222222225","8.425694444444444","8.425694444444444","7.2666666666666675"],
    [177,"2024-01-23 22:55:54","5.428671328671328","10.410489510489512","10.410489510489512","9.592307692307694"],
    [178,"2024-01-24 22:55:54","6.924460431654679","11.131654676259002","11.131654676259002","10.701438848920864"],
    [179,"2024-01-25 22:55:54","7.814893617021282","9.925531914893611","9.925531914893611","9.589361702127656"],
    [180,"2024-01-26 22:55:54","3.8609929078014176","5.5645390070922","5.5645390070922","4.604964539007094"],
    [181,"2024-01-27 22:55:54","-0.051748251748251664","2.8923076923076922","2.8923076923076922","1.690909090909089"],
    [182,"2024-01-28 22:55:54","-0.3541666666666668","2.2854166666666673","2.2854166666666673","1.009027777777778"],
    [183,"2024-01-29 22:55:54","1.356643356643357","4.265034965034967","4.265034965034967","3.250349650349651"],
    [184,"2024-01-30 22:55:54","5.012413793103441","8.632413793103444","8.632413793103444","8.20068965517241"],
    [185,"2024-01-31 22:55:54","6.114084507042252","9.381690140845075","9.381690140845075","8.900704225352115"],
    [186,"2024-02-01 22:55:54","6.631250000000003","7.1791666666666645","7.1791666666666645","6.534722222222219"],
    [187,"2024-02-02 22:55:54","5.414084507042253","8.920422535211275","8.920422535211275","8.175352112676057"],
    [188,"2024-02-03 22:55:54","4.929861111111114","8.517361111111105","8.517361111111105","7.612499999999999"],
    [189,"2024-02-04 22:55:54","4.9607142857142845","8.636428571428572","8.636428571428572","7.5935714285714315"],
    [190,"2024-02-05 22:55:54","3.5965277777777747","7.41736111111111","7.41736111111111","6.080555555555556"],
    [191,"2024-02-06 22:55:54","4.0888888888888895","8.910416666666668","8.910416666666668","7.576388888888889"],
    [192,"2024-02-07 22:55:54","7.859027777777779","9.437499999999998","9.437499999999998","8.679166666666664"],
    [193,"2024-02-08 22:55:54","8.389510489510489","12.383216783216781","12.383216783216781","12.250349650349648"],
    [194,"2024-02-09 22:55:54","8.692413793103446","10.903448275862065","10.903448275862065","10.718620689655172"],
    [195,"2024-02-10 22:55:54","7.835915492957748","9.35845070422535","9.35845070422535","8.883098591549293"],
    [196,"2024-02-11 22:55:54","5.9443661971831006","9.050704225352115","9.050704225352115","8.592957746478874"],
    [197,"2024-02-12 22:55:54","3.7902777777777774","7.841666666666669","7.841666666666669","7.223611111111113"],
    [198,"2024-02-13 22:55:54","3.2342657342657333","8.645454545454541","8.645454545454541","8.180419580419581"],
    [199,"2024-02-14 22:55:54","8.123076923076928","12.334265734265735","12.334265734265735","12.253846153846151"],
    [200,"2024-02-15 22:55:54","8.367605633802814","12.843661971830992","12.843661971830992","12.78732394366198"],
    [201,"2024-02-16 22:55:54","10.30902777777777","12.963888888888889","12.963888888888889","12.925"],
    [202,"2024-02-17 22:55:54","6.495833333333331","10.027777777777773","10.027777777777773","9.693750000000005"],
    [203,"2024-02-18 22:55:54","7.403496503496499","9.645454545454548","9.645454545454548","9.1993006993007"],
    [204,"2024-02-19 22:55:54","6.782068965517244","9.48965517241379","9.48965517241379","9.13379310344828"],
    [205,"2024-02-20 22:55:54","4.289436619718311","8.767605633802816","8.767605633802816","8.232394366197184"],
    [206,"2024-02-21 22:55:54","5.733093525179858","10.591366906474812","10.591366906474812","10.191366906474824"],
    [207,"2024-02-22 22:55:54","4.992198581560281","9.399290780141847","9.399290780141847","8.37659574468085"],
    [208,"2024-02-23 22:55:54","1.721379310344827","7.378620689655173","7.378620689655173","6.655172413793105"],
    [209,"2024-02-24 22:55:54","0.9069930069930073","6.311888111888114","6.311888111888114","5.476923076923075"],
    [210,"2024-02-25 22:55:54","2.1349650349650355","10.050349650349656","10.050349650349656","9.713986013986016"],
    [211,"2024-02-26 22:55:54","5.507692307692306","10.206993006993004","10.206993006993004","9.860139860139855"],
    [212,"2024-02-27 22:55:54","3.9576388888888903","8.08680555555555","8.08680555555555","7.5118055555555525"],
    [213,"2024-02-28 22:55:54","1.89645390070922","5.537588652482271","5.537588652482271","4.669503546099293"],
    [214,"2024-02-29 22:55:54","3.2908450704225345","7.318309859154929","7.318309859154929","6.702816901408454"],
    [215,"2024-03-01 22:55:54","3.039999999999999","6.937241379310346","6.937241379310346","6.250344827586204"],
    [216,"2024-03-02 22:55:54","5.030985915492956","11.247887323943656","11.247887323943656","11.02676056338028"],
    [217,"2024-03-03 22:55:54","6.240140845070416","10.497887323943667","10.497887323943667","10.121126760563381"],
    [218,"2024-03-04 22:55:54","6.531468531468529","8.604895104895101","8.604895104895101","8.169930069930066"],
    [219,"2024-03-05 22:55:54","4.991034482758621","7.626206896551725","7.626206896551725","7.039310344827589"],
    [220,"2024-03-06 22:55:54","4.726428571428568","7.078571428571431","7.078571428571431","6.277857142857141"],
    [221,"2024-03-07 22:55:54","1.0657342657342659","6.277622377622375","6.277622377622375","5.116083916083916"],
    [222,"2024-03-08 22:55:54","1.6503546099290785","7.763829787234038","7.763829787234038","6.98439716312057"],
    [223,"2024-03-09 22:55:54","3.5119718309859165","11.794366197183097","11.794366197183097","11.602816901408456"],
    [224,"2024-03-10 22:55:54","5.279856115107911","9.112230215827337","9.112230215827337","8.664028776978423"],
    [225,"2024-03-11 22:55:54","4.7901408450704235","10.082394366197182","10.082394366197182","9.700704225352114"],
    [226,"2024-03-12 22:55:54","7.016901408450703","8.742253521126758","8.742253521126758","8.261971830985914"],
    [227,"2024-03-13 22:55:54","9.366901408450707","11.565492957746477","11.565492957746477","11.428169014084512"],
    [228,"2024-03-14 22:55:54","8.6013986013986","14.204895104895103","14.204895104895103","14.18951048951048"],
    [229,"2024-03-15 22:55:54","8.697202797202797","12.459440559440562","12.459440559440562","12.237762237762238"],
    [230,"2024-03-16 22:55:54","6.435915492957752","10.07605633802817","10.07605633802817","9.614084507042254"],
    [231,"2024-03-17 22:55:54","8.315172413793105","11.882068965517245","11.882068965517245","11.792413793103448"],
    [232,"2024-03-18 22:55:54","8.922758620689653","10.927586206896555","10.927586206896555","10.711724137931032"],
    [233,"2024-03-19 22:55:54","8.083916083916083","12.781818181818181","12.781818181818181","12.639160839160837"],
    [234,"2024-03-20 22:55:54","8.169718309859155","14.15070422535212","14.15070422535212","14.073943661971837"],
    [235,"2024-03-21 22:55:54","7.017361111111113","14.741666666666667","14.741666666666667","14.699305555555554"],
    [236,"2024-03-22 22:55:54","6.745833333333329","14.32152777777778","14.32152777777778","13.975000000000003"],
    [237,"2024-03-23 22:55:54","2.694444444444447","6.379166666666665","6.379166666666665","5.177777777777774"],
    [238,"2024-03-24 22:55:54","2.852777777777776","6.9388888888888935","6.9388888888888935","5.866666666666664"],
    [239,"2024-03-25 22:55:54","-0.20000000000000012","9.312587412587416","9.312587412587416","8.844055944055944"],
    [240,"2024-03-26 22:55:54","4.694520547945207","12.156164383561645","12.156164383561645","11.991095890410964"],
    [241,"2024-03-27 22:55:54","3.6120567375886536","7.116312056737588","7.116312056737588","6.241134751773045"],
    [242,"2024-03-28 22:55:54","3.4347222222222227","9.431250000000006","9.431250000000006","8.892361111111114"],
    [243,"2024-03-29 22:55:54","9.910273972602738","11.103424657534251","11.103424657534251","10.940410958904115"],
    [244,"2024-03-30 22:55:54","8.520714285714282","12.043571428571427","12.043571428571427","11.889285714285716"],
    [245,"2024-03-31 23:55:54","9.270833333333329","13.645138888888885","13.645138888888885","13.517361111111109"],
    [246,"2024-04-01 23:55:54","6.6006944444444455","9.935416666666674","9.935416666666674","9.429166666666664"],
    [247,"2024-04-02 23:55:54","5.181944444444445","11.478472222222225","11.478472222222225","11.209722222222219"],
    [248,"2024-04-03 23:55:54","9.56083916083916","12.938461538461532","12.938461538461532","12.879720279720273"],
    [249,"2024-04-04 23:55:54","10.646527777777784","14.31736111111111","14.31736111111111","14.302083333333334"],
    [250,"2024-04-05 23:55:54","9.454482758620689","17.744827586206902","17.744827586206902","17.732413793103454"],
    [251,"2024-04-06 23:55:54","7.704895104895103","21.432167832167828","21.432167832167828","21.432167832167828"],
    [252,"2024-04-07 23:55:54","11.01666666666667","19.9625","19.9625","19.9625"],
    [253,"2024-04-08 23:55:54","9.351773049645388","20.090780141843975","20.090780141843975","19.924113475177307"],
    [254,"2024-04-09 23:55:54","4.580985915492957","9.864788732394366","9.864788732394366","9.499295774647889"],
    [255,"2024-04-10 23:55:54","2.81875","11.193749999999993","11.193749999999993","10.906944444444454"],
    [256,"2024-04-11 23:55:54","4.172727272727272","13.793006993006998","13.793006993006998","13.660139860139859"],
    [257,"2024-04-12 23:55:54","7.163120567375884","17.014184397163106","17.014184397163106","16.982269503546092"],
    [258,"2024-04-13 23:55:54","10.688028169014085","19.361267605633806","19.361267605633806","19.361267605633806"],
    [259,"2024-04-14 23:55:54","11.254225352112671","19.095070422535205","19.095070422535205","19.094366197183092"],
    [260,"2024-04-15 23:55:54","3.962068965517242","10.728965517241372","10.728965517241372","9.799310344827592"],
    [261,"2024-04-16 23:55:54","4.888888888888889","8.262500000000005","8.262500000000005","7.300694444444446"],
    [262,"2024-04-17 23:55:54","3.2622377622377616","6.346153846153849","6.346153846153849","5.586713286713291"],
    [263,"2024-04-18 23:55:54","4.331249999999999","6.981944444444448","6.981944444444448","6.152777777777782"],
    [264,"2024-04-19 23:55:54","4.457142857142857","6.527857142857144","6.527857142857144","5.535714285714285"],
    [265,"2024-04-20 23:55:54","3.1999999999999997","6.415384615384616","6.415384615384616","5.66083916083916"],
    [266,"2024-04-21 23:55:54","1.4753521126760556","5.161267605633801","5.161267605633801","4.03943661971831"],
    [267,"2024-04-22 23:55:54","-0.38943661971830995","5.567605633802819","5.567605633802819","4.450000000000001"],
    [268,"2024-04-23 23:55:54","-0.8655172413793101","7.690344827586206","7.690344827586206","7.06551724137931"],
    [269,"2024-04-24 23:55:54","2.8633802816901412","5.998591549295773","5.998591549295773","5.07112676056338"],
    [270,"2024-04-25 23:55:54","1.9078571428571434","7.762142857142854","7.762142857142854","7.161428571428571"],
    [271,"2024-04-26 23:55:54","7.175177304964539","11.060283687943267","11.060283687943267","10.802836879432629"],
    [272,"2024-04-27 23:55:54","6.932394366197181","17.060563380281685","17.060563380281685","17.05704225352112"],
    [273,"2024-04-28 23:55:54","7.955862068965513","14.193793103448266","14.193793103448266","14.174482758620679"],
    [274,"2024-04-29 23:55:54","9.425874125874127","17.11328671328671","17.11328671328671","17.1041958041958"],
    [275,"2024-04-30 23:55:54","10.96736111111111","19.393749999999997","19.393749999999997","19.393749999999997"],
    [276,"2024-05-01 23:55:54","11.095138888888886","20.661111111111108","20.661111111111108","20.661111111111108"],
    [277,"2024-05-02 23:55:54","10.443055555555553","13.586805555555557","13.586805555555557","13.336111111111112"],
    [278,"2024-05-03 23:55:54","7.546206896551724","13.331724137931033","13.331724137931033","13.265517241379305"],
    [279,"2024-05-04 23:55:54","10.63333333333333","16.73194444444444","16.73194444444444","16.73055555555555"],
    [280,"2024-05-05 23:55:54","13.458041958041962","16.572727272727278","16.572727272727278","16.572727272727278"],
    [281,"2024-05-06 23:55:54","10.970833333333339","13.930555555555552","13.930555555555552","13.890972222222219"],
    [282,"2024-05-07 23:55:54","10.236111111111118","14.482638888888895","14.482638888888895","14.479861111111116"],
    [283,"2024-05-08 23:55:54","8.847916666666663","14.090972222222229","14.090972222222229","14.039583333333333"],
    [284,"2024-05-09 23:55:54","7.165277777777776","16.391666666666673","16.391666666666673","16.34930555555556"],
    [285,"2024-05-10 23:55:54","7.71388888888889","18.21805555555556","18.21805555555556","18.21180555555556"],
    [286,"2024-05-11 23:55:54","8.454545454545453","20.087412587412587","20.087412587412587","20.087412587412587"],
    [287,"2024-05-12 23:55:54","11.200694444444444","22.082638888888894","22.082638888888894","22.082638888888894"],
    [288,"2024-05-13 23:55:54","12.802097902097904","19.87622377622379","19.87622377622379","19.87622377622379"],
    [289,"2024-05-14 23:55:54","11.233823529411765","19.902205882352945","19.902205882352945","19.902205882352945"],
    [290,"2024-05-15 23:55:54","12.779577464788728","16.059154929577463","16.059154929577463","16.057746478873238"],
    [291,"2024-05-16 23:55:54","12.081294964028782","15.568345323740994","15.568345323740994","15.40791366906474"],
    [292,"2024-05-17 23:55:54","11.185416666666672","12.626388888888892","12.626388888888892","12.35902777777778"],
    [293,"2024-05-18 23:55:54","11.591666666666663","16.061805555555548","16.061805555555548","16.057638888888885"],
    [294,"2024-05-19 23:55:54","11.607586206896553","16.185517241379312","16.185517241379312","16.175172413793103"],
    [295,"2024-05-20 23:55:54","12.465734265734257","18.711188811188812","18.711188811188812","18.711188811188812"],
    [296,"2024-05-21 23:55:54","13.215827338129495","15.625899280575544","15.625899280575544","15.625179856115112"],
    [297,"2024-05-22 23:55:54","12.296503496503497","16.1895104895105","16.1895104895105","16.186013986013997"],
    [298,"2024-05-23 23:55:54","12.3965034965035","14.665734265734278","14.665734265734278","14.665734265734278"],
    [299,"2024-05-24 23:55:54","11.764827586206902","15.649655172413798","15.649655172413798","15.64"],
    [300,"2024-05-25 23:55:54","10.977083333333333","18.62361111111111","18.62361111111111","18.62361111111111"],
    [301,"2024-05-26 23:55:54","13.252054794520546","19.513698630136997","19.513698630136997","19.513698630136997"],
    [302,"2024-05-27 23:55:54","11.698591549295775","16.8387323943662","16.8387323943662","16.8387323943662"],
    [303,"2024-05-28 23:55:54","9.500689655172412","18.29172413793103","18.29172413793103","18.29172413793103"],
    [304,"2024-05-29 23:55:54","13.000729927007301","16.097080291970805","16.097080291970805","16.086131386861314"],
    [305,"2024-05-30 23:55:54","10.984999999999996","16.54857142857143","16.54857142857143","16.54857142857143"],
    [306,"2024-05-31 23:55:54","12.353900709219863","14.785106382978721","14.785106382978721","14.785106382978721"],
    [307,"2024-06-01 23:55:54","14.523943661971828","15.974647887323941","15.974647887323941","15.974647887323941"],
    [308,"2024-06-02 23:55:54","12.799300699300694","16.790209790209783","16.790209790209783","16.790209790209783"],
    [309,"2024-06-03 23:55:54","10.849999999999998","16.86478873239436","16.86478873239436","16.86478873239436"],
    [310,"2024-06-04 23:55:54","12.687234042553186","19.65815602836879","19.65815602836879","19.65815602836879"],
    [311,"2024-06-05 23:55:54","13.994366197183103","20.04647887323943","20.04647887323943","20.04647887323943"],
    [312,"2024-06-06 23:55:54","11.046808510638296","21.510638297872337","21.510638297872337","21.510638297872337"],
    [313,"2024-06-07 23:55:54","10.897916666666667","21.141666666666666","21.141666666666666","21.141666666666666"],
    [314,"2024-06-08 23:55:54","13.075000000000005","20.668055555555565","20.668055555555565","20.667361111111116"],
    [315,"2024-06-09 23:55:54","9.177304964539008","19.584397163120563","19.584397163120563","19.584397163120563"],
    [316,"2024-06-10 23:55:54","6.9722222222222205","16.59583333333333","16.59583333333333","16.562500000000004"],
    [317,"2024-06-11 23:55:54","5.768749999999996","15.377083333333331","15.377083333333331","15.33402777777778"],
    [318,"2024-06-12 23:55:54","5.956737588652486","16.665248226950357","16.665248226950357","16.663829787234047"],
    [319,"2024-06-13 23:55:54","7.594405594405596","17.583916083916094","17.583916083916094","17.583916083916094"],
    [320,"2024-06-14 23:55:54","13.509285714285722","17.156428571428574","17.156428571428574","17.13"],
    [321,"2024-06-15 23:55:54","10.51319444444445","17.58472222222222","17.58472222222222","17.581944444444442"],
    [322,"2024-06-16 23:55:54","13.23888888888889","19.213194444444447","19.213194444444447","19.213194444444447"],
    [323,"2024-06-17 23:55:54","15.194244604316543","19.720863309352524","19.720863309352524","19.720863309352524"],
    [324,"2024-06-18 23:55:54","17.72","24.13862068965517","24.13862068965517","24.13862068965517"],
    [325,"2024-06-19 23:55:54","15.462676056338028","20.08028169014084","20.08028169014084","20.08028169014084"],
    [326,"2024-06-20 23:55:54","19.026388888888885","22.0875","22.0875","22.0875"],
    [327,"2024-06-21 23:55:54","15.963309352517987","19.574820143884896","19.574820143884896","19.574820143884896"],
    [328,"2024-06-22 23:55:54","13.886206896551725","16.74068965517241","16.74068965517241","16.74068965517241"],
    [329,"2024-06-23 23:55:54","14.684722222222225","20.951388888888875","20.951388888888875","20.951388888888875"],
    [330,"2024-06-24 23:55:54","13.973239436619714","23.335211267605644","23.335211267605644","23.335211267605644"],
    [331,"2024-06-25 23:55:54","14.79440559440559","24.567132867132866","24.567132867132866","24.567132867132866"],
    [332,"2024-06-26 23:55:54","18.55972222222222","25.042361111111113","25.042361111111113","25.042361111111113"],
    [333,"2024-06-27 23:55:54","18.545774647887335","26.18943661971831","26.18943661971831","26.18943661971831"],
    [334,"2024-06-28 23:55:54","16.14930555555556","24.661805555555546","24.661805555555546","24.661805555555546"],
    [335,"2024-06-29 23:55:54","19.573943661971832","25.42957746478871","25.42957746478871","25.42957746478871"],
    [336,"2024-06-30 23:55:54","15.610416666666671","17.26805555555556","17.26805555555556","17.26736111111111"],
    [337,"2024-07-01 23:55:54","13.476388888888883","18.457638888888887","18.457638888888887","18.457638888888887"],
    [338,"2024-07-02 23:55:54","13.775352112676055","15.921126760563382","15.921126760563382","15.919718309859158"],
    [339,"2024-07-03 23:55:54","13.030069930069937","15.47762237762237","15.47762237762237","15.47762237762237"],
    [340,"2024-07-04 23:55:54","13.028275862068972","17.924827586206902","17.924827586206902","17.924827586206902"],
    [341,"2024-07-05 23:55:54","13.834751773049641","20.826241134751776","20.826241134751776","20.826241134751776"],
    [342,"2024-07-06 23:55:54","14.790277777777776","17.515277777777776","17.515277777777776","17.515277777777776"],
    [343,"2024-07-07 23:55:54","10.311805555555559","19.86111111111111","19.86111111111111","19.86111111111111"],
    [344,"2024-07-08 23:55:54","13.860839160839156","23.48881118881119","23.48881118881119","23.48881118881119"],
    [345,"2024-07-09 23:55:54","18.209790209790214","27.76363636363637","27.76363636363637","27.76363636363637"],
    [346,"2024-07-10 23:55:54","19.21056338028169","22.252112676056345","22.252112676056345","22.252112676056345"],
    [347,"2024-07-11 23:55:54","18.281818181818185","24.05034965034965","24.05034965034965","24.05034965034965"],
    [348,"2024-07-12 23:55:54","15.60642857142857","19.747142857142858","19.747142857142858","19.747142857142858"],
    [349,"2024-07-13 23:55:54","12.041549295774646","19.531690140845065","19.531690140845065","19.531690140845065"],
    [350,"2024-07-14 23:55:54","13.170833333333336","21.73194444444445","21.73194444444445","21.73194444444445"],
    [351,"2024-07-15 23:55:54","17.553146853146853","24.34615384615385","24.34615384615385","24.34615384615385"],
    [352,"2024-07-16 23:55:54","13.674825174825175","22.26223776223775","22.26223776223775","22.26223776223775"],
    [353,"2024-07-17 23:55:54","14.1","22.613669064748198","22.613669064748198","22.613669064748198"],
    [354,"2024-07-18 23:55:54","14.874482758620697","24.664137931034492","24.664137931034492","24.664137931034492"],
    [355,"2024-07-19 23:55:54","17.722857142857144","26.544285714285714","26.544285714285714","26.544285714285714"],
    [356,"2024-07-20 23:55:54","17.214583333333326","27.44236111111111","27.44236111111111","27.44236111111111"],
    [357,"2024-07-21 23:55:54","18.326241134751783","23.85390070921986","23.85390070921986","23.85390070921986"],
    [358,"2024-07-22 23:55:54","14.082394366197178","22.855633802816918","22.855633802816918","22.855633802816918"],
    [359,"2024-07-23 23:55:54","16.075","19.675694444444442","19.675694444444442","19.675694444444442"],
    [360,"2024-07-24 23:55:54","14.450000000000001","22.406382978723403","22.406382978723403","22.406382978723403"],
    [361,"2024-07-25 23:55:54","15.14366197183099","23.090845070422542","23.090845070422542","23.090845070422542"],
    [362,"2024-07-26 23:55:54","18.252447552447553","23.54755244755245","23.54755244755245","23.54755244755245"],
    [363,"2024-07-27 23:55:54","18.118571428571446","21.39785714285714","21.39785714285714","21.39785714285714"],
    [364,"2024-07-28 23:55:54","13.206293706293696","20.567132867132866","20.567132867132866","20.567132867132866"],
    [365,"2024-07-29 23:55:54","13.899295774647882","23.633098591549313","23.633098591549313","23.633098591549313"]
]}
